createdAt,value
2022-11-22T00:01:57.314Z,1.50
2022-11-22T00:04:25.979Z,1.46
2022-11-22T00:06:54.837Z,1.46
2022-11-22T00:09:23.841Z,1.47
2022-11-22T00:11:53.413Z,1.45
2022-11-22T00:14:22.557Z,1.44
2022-11-22T00:16:52.397Z,1.48
2022-11-22T00:19:25.981Z,1.52
2022-11-22T00:21:54.928Z,1.52
2022-11-22T00:24:23.618Z,1.54
2022-11-22T00:26:52.449Z,1.56
2022-11-22T00:29:21.490Z,1.58
2022-11-22T00:31:50.428Z,1.58
2022-11-22T00:34:19.148Z,1.59
2022-11-22T00:36:49.268Z,1.59
2022-11-22T00:39:18.743Z,1.61
2022-11-22T00:41:47.328Z,1.60
2022-11-22T00:44:16.696Z,1.56
2022-11-22T00:46:45.523Z,1.52
2022-11-22T00:49:14.456Z,1.53
2022-11-22T00:51:43.498Z,1.54
2022-11-22T00:54:14.007Z,1.58
2022-11-22T00:56:42.519Z,1.62
2022-11-22T00:59:12.005Z,1.65
2022-11-22T01:01:40.904Z,1.61
2022-11-22T01:04:10.091Z,1.57
2022-11-22T01:06:38.470Z,1.56
2022-11-22T01:09:07.398Z,1.58
2022-11-22T01:11:37.209Z,1.59
2022-11-22T01:14:07.808Z,1.54
2022-11-22T01:16:36.217Z,1.50
2022-11-22T01:19:04.645Z,1.47
2022-11-22T01:21:33.151Z,1.42
2022-11-22T01:24:02.370Z,1.37
2022-11-22T01:26:31.215Z,1.30
2022-11-22T01:29:01.768Z,1.21
2022-11-22T01:31:30.528Z,1.10
2022-11-22T01:33:59.576Z,1.05
2022-11-22T01:36:28.522Z,1.01
2022-11-22T01:38:57.440Z,0.94
2022-11-22T01:41:25.846Z,0.88
2022-11-22T01:43:54.562Z,0.83
2022-11-22T01:46:33.667Z,0.80
2022-11-22T01:49:05.715Z,0.76
2022-11-22T01:51:38.435Z,0.75
2022-11-22T01:54:11.581Z,0.77
2022-11-22T01:56:42.716Z,0.77
2022-11-22T01:59:15.967Z,0.82
2022-11-22T02:01:46.117Z,0.84
2022-11-22T02:04:18.067Z,0.86
2022-11-22T02:06:55.690Z,0.95
2022-11-22T02:09:24.646Z,0.99
2022-11-22T02:11:55.447Z,1.02
2022-11-22T02:14:27.193Z,1.07
2022-11-22T02:16:57.107Z,1.10
2022-11-22T02:19:35.024Z,1.11
2022-11-22T02:22:12.202Z,1.15
2022-11-22T02:24:47.863Z,1.21
2022-11-22T02:27:18.381Z,1.23
2022-11-22T02:29:47.172Z,1.25
2022-11-22T02:32:15.867Z,1.24
2022-11-22T02:34:45.897Z,1.17
2022-11-22T02:37:17.756Z,1.13
2022-11-22T02:39:49.591Z,1.10
2022-11-22T02:42:19.434Z,1.07
2022-11-22T02:44:48.091Z,1.10
2022-11-22T02:47:16.469Z,1.11
2022-11-22T02:49:45.203Z,1.12
2022-11-22T02:52:18.650Z,1.14
2022-11-22T02:54:47.396Z,1.12
2022-11-22T02:57:15.945Z,1.14
2022-11-22T02:59:46.424Z,1.16
2022-11-22T03:02:14.940Z,1.15
2022-11-22T03:04:43.563Z,1.16
2022-11-22T03:07:12.252Z,1.18
2022-11-22T03:09:40.793Z,1.17
2022-11-22T03:12:09.440Z,1.19
2022-11-22T03:14:37.889Z,1.24
2022-11-22T03:17:07.923Z,1.26
2022-11-22T03:19:36.674Z,1.28
2022-11-22T03:22:05.316Z,1.28
2022-11-22T03:24:33.964Z,1.26
2022-11-22T03:27:02.740Z,1.24
2022-11-22T03:29:31.518Z,1.21
2022-11-22T03:32:00.851Z,1.17
2022-11-22T03:34:30.937Z,1.17
2022-11-22T03:36:59.733Z,1.16
2022-11-22T03:39:28.562Z,1.16
2022-11-22T03:41:57.471Z,1.18
2022-11-22T03:44:26.279Z,1.21
2022-11-22T03:46:54.842Z,1.26
2022-11-22T03:49:23.520Z,1.30
2022-11-22T03:51:53.430Z,1.31
2022-11-22T03:54:22.962Z,1.32
2022-11-22T03:56:51.658Z,1.32
2022-11-22T03:59:22.230Z,1.36
2022-11-22T04:01:51.158Z,1.40
2022-11-22T04:04:20.648Z,1.41
2022-11-22T04:06:49.306Z,1.40
2022-11-22T04:09:19.576Z,1.43
2022-11-22T04:11:48.272Z,1.45
2022-11-22T04:14:33.937Z,1.48
2022-11-22T04:17:02.965Z,1.46
2022-11-22T04:19:32.156Z,1.45
2022-11-22T04:21:59.607Z,1.46
2022-11-22T04:24:46.911Z,1.47
2022-11-22T04:27:15.457Z,1.44
2022-11-22T04:29:43.964Z,1.42
2022-11-22T04:32:29.904Z,1.43
2022-11-22T04:34:58.481Z,1.43
2022-11-22T04:37:26.750Z,1.42
2022-11-22T04:39:56.982Z,1.45
2022-11-22T04:42:42.779Z,1.45
2022-11-22T04:45:12.112Z,1.46
2022-11-22T04:47:57.730Z,1.48
2022-11-22T04:50:44.289Z,1.49
2022-11-22T04:53:12.683Z,1.51
2022-11-22T04:55:43.397Z,1.49
2022-11-22T04:58:12.667Z,1.47
2022-11-22T05:00:41.908Z,1.50
2022-11-22T05:03:10.923Z,1.47
2022-11-22T05:05:41.145Z,1.46
2022-11-22T05:08:09.941Z,1.43
2022-11-22T05:10:53.207Z,1.45
2022-11-22T05:13:25.398Z,1.40
2022-11-22T05:15:53.976Z,1.36
2022-11-22T05:18:23.840Z,1.36
2022-11-22T05:20:53.251Z,1.35
2022-11-22T05:23:41.082Z,1.33
2022-11-22T05:26:11.484Z,1.33
2022-11-22T05:28:41.901Z,1.35
2022-11-22T05:31:12.162Z,1.39
2022-11-22T05:33:42.844Z,1.43
2022-11-22T05:36:12.425Z,1.44
2022-11-22T05:38:41.174Z,1.46
2022-11-22T05:41:11.608Z,1.48
2022-11-22T05:43:41.909Z,1.46
2022-11-22T05:46:12.018Z,1.44
2022-11-22T05:48:43.487Z,1.41
2022-11-22T05:51:14.842Z,1.40
2022-11-22T05:53:46.581Z,1.40
2022-11-22T05:56:17.296Z,1.36
2022-11-22T05:58:48.280Z,1.37
2022-11-22T06:01:21.943Z,1.36
2022-11-22T06:03:51.447Z,1.35
2022-11-22T06:06:20.818Z,1.35
2022-11-22T06:08:51.820Z,1.36
2022-11-22T06:11:22.514Z,1.36
2022-11-22T06:13:54.227Z,1.34
2022-11-22T06:16:24.440Z,1.36
2022-11-22T06:18:54.890Z,1.37
2022-11-22T06:21:24.908Z,1.40
2022-11-22T06:23:55.829Z,1.40
2022-11-22T06:26:26.063Z,1.41
2022-11-22T06:28:56.865Z,1.41
2022-11-22T06:31:27.409Z,1.43
2022-11-22T06:33:57.564Z,1.48
2022-11-22T06:36:28.616Z,1.53
2022-11-22T06:38:57.446Z,1.53
2022-11-22T06:41:29.214Z,1.55
2022-11-22T06:43:59.867Z,1.58
2022-11-22T06:46:29.037Z,1.62
2022-11-22T06:48:57.908Z,1.71
2022-11-22T06:51:28.829Z,1.74
2022-11-22T06:53:58.895Z,1.73
2022-11-22T06:56:29.586Z,1.70
2022-11-22T06:59:02.908Z,1.71
2022-11-22T07:01:32.859Z,1.71
2022-11-22T07:04:03.733Z,1.73
2022-11-22T07:06:34.601Z,1.72
2022-11-22T07:09:05.920Z,1.71
2022-11-22T07:11:36.345Z,1.71
2022-11-22T07:14:08.800Z,1.76
2022-11-22T07:16:39.419Z,1.84
2022-11-22T07:19:09.161Z,1.89
2022-11-22T07:21:38.718Z,1.90
2022-11-22T07:24:09.050Z,1.91
2022-11-22T07:26:37.998Z,1.94
2022-11-22T07:29:08.786Z,1.99
2022-11-22T07:31:37.192Z,2.02
2022-11-22T07:34:06.342Z,2.05
2022-11-22T07:36:35.304Z,2.08
2022-11-22T07:39:05.802Z,2.11
2022-11-22T07:41:34.609Z,2.14
2022-11-22T07:44:03.274Z,2.16
2022-11-22T07:46:33.711Z,2.18
2022-11-22T07:49:03.503Z,2.19
2022-11-22T07:51:32.815Z,2.18
2022-11-22T07:54:01.523Z,2.20
2022-11-22T07:56:30.398Z,2.21
2022-11-22T07:58:59.540Z,2.25
2022-11-22T08:01:28.030Z,2.33
2022-11-22T08:03:58.796Z,2.39
2022-11-22T08:06:27.878Z,2.45
2022-11-22T08:09:01.739Z,2.48
2022-11-22T08:11:31.747Z,2.53
2022-11-22T08:14:00.514Z,2.58
2022-11-22T08:16:29.154Z,2.60
2022-11-22T08:19:01.667Z,2.64
2022-11-22T08:21:30.312Z,2.65
2022-11-22T08:24:00.253Z,2.69
2022-11-22T08:26:29.270Z,2.74
2022-11-22T08:29:01.227Z,2.77
2022-11-22T08:31:33.045Z,2.83
2022-11-22T08:34:06.464Z,2.89
2022-11-22T08:36:35.183Z,2.92
2022-11-22T08:39:04.813Z,2.94
2022-11-22T08:41:34.159Z,2.96
2022-11-22T08:44:03.047Z,2.98
2022-11-22T08:46:32.501Z,3.01
2022-11-22T08:49:03.935Z,3.04
2022-11-22T08:51:37.314Z,3.06
2022-11-22T08:54:06.319Z,3.09
2022-11-22T08:56:35.420Z,3.09
2022-11-22T08:59:04.130Z,3.10
2022-11-22T09:01:33.851Z,3.14
2022-11-22T09:04:03.110Z,3.18
2022-11-22T09:09:37.219Z,3.26
2022-11-22T09:12:07.187Z,3.29
2022-11-22T09:14:36.757Z,3.32
2022-11-22T09:17:08.671Z,3.34
2022-11-22T09:19:40.361Z,3.36
2022-11-22T09:22:16.054Z,3.41
2022-11-22T09:24:48.560Z,3.41
2022-11-22T09:27:24.714Z,3.42
2022-11-22T09:29:56.719Z,3.42
2022-11-22T09:32:30.768Z,3.40
2022-11-22T09:35:02.586Z,3.44
2022-11-22T09:37:34.410Z,3.46
2022-11-22T09:40:07.509Z,3.46
2022-11-22T09:43:08.479Z,3.44
2022-11-22T09:45:53.770Z,3.44
2022-11-22T09:48:44.833Z,3.41
2022-11-22T09:51:26.708Z,3.40
2022-11-22T09:54:06.885Z,3.40
2022-11-22T09:56:36.986Z,3.41
2022-11-22T09:59:15.767Z,3.44
2022-11-22T10:01:52.887Z,3.48
2022-11-22T10:04:26.215Z,3.48
2022-11-22T10:07:02.853Z,3.50
2022-11-22T10:09:40.784Z,3.49
2022-11-22T10:12:19.096Z,3.50
2022-11-22T10:14:57.002Z,3.47
2022-11-22T10:17:40.242Z,3.44
2022-11-22T10:20:15.696Z,3.45
2022-11-22T10:22:45.032Z,3.51
2022-11-22T10:25:23.301Z,3.52
2022-11-22T10:28:00.579Z,3.52
2022-11-22T10:30:36.130Z,3.53
2022-11-22T10:33:20.201Z,3.54
2022-11-22T10:36:07.854Z,3.55
2022-11-22T10:39:09.169Z,3.55
2022-11-22T10:41:56.151Z,3.53
2022-11-22T10:44:43.901Z,3.53
2022-11-22T10:47:39.193Z,3.57
2022-11-22T10:50:23.053Z,3.58
2022-11-22T10:53:06.804Z,3.58
2022-11-22T10:55:57.255Z,3.64
2022-11-22T10:58:38.753Z,3.67
2022-11-22T11:01:20.989Z,3.69
2022-11-22T11:03:55.019Z,3.68
2022-11-22T11:06:57.030Z,3.69
2022-11-22T11:12:29.033Z,3.70
2022-11-22T11:15:11.457Z,3.71
2022-11-22T11:17:44.003Z,3.70
2022-11-22T11:20:23.126Z,3.70
2022-11-22T11:23:13.785Z,3.70
2022-11-22T11:25:45.796Z,3.68
2022-11-22T11:28:24.949Z,3.69
2022-11-22T11:31:00.737Z,3.72
2022-11-22T11:33:40.878Z,3.66
2022-11-22T11:36:14.870Z,3.64
2022-11-22T11:38:56.211Z,3.64
2022-11-22T11:41:31.739Z,3.62
2022-11-22T11:44:05.361Z,3.62
2022-11-22T11:46:50.761Z,3.61
2022-11-22T11:49:25.002Z,3.63
2022-11-22T11:51:57.010Z,3.61
2022-11-22T11:54:31.022Z,3.57
2022-11-22T11:57:03.744Z,3.55
2022-11-22T11:59:44.962Z,3.54
2022-11-22T12:02:22.066Z,3.53
2022-11-22T12:04:59.844Z,3.51
2022-11-22T12:07:44.405Z,3.53
2022-11-22T12:10:29.130Z,3.50
2022-11-22T12:13:04.569Z,3.45
2022-11-22T12:15:52.442Z,3.45
2022-11-22T12:18:35.797Z,3.42
2022-11-22T12:21:14.530Z,3.41
2022-11-22T12:24:07.991Z,3.38
2022-11-22T12:26:48.728Z,3.37
2022-11-22T12:29:27.062Z,3.34
2022-11-22T12:32:04.507Z,3.31
2022-11-22T12:34:39.546Z,3.29
2022-11-22T12:37:19.953Z,3.26
2022-11-22T12:39:50.642Z,3.26
2022-11-22T12:42:26.480Z,3.24
2022-11-22T12:45:02.807Z,3.25
2022-11-22T12:47:45.249Z,3.22
2022-11-22T12:50:27.850Z,3.21
2022-11-22T12:53:04.822Z,3.21
2022-11-22T12:55:43.944Z,3.18
2022-11-22T12:58:23.151Z,3.13
2022-11-22T13:01:09.541Z,3.10
2022-11-22T13:03:46.688Z,3.12
2022-11-22T13:06:25.410Z,3.09
2022-11-22T13:09:04.281Z,3.07
2022-11-22T13:11:42.337Z,3.08
2022-11-22T13:14:29.209Z,3.07
2022-11-22T13:16:59.016Z,3.06
2022-11-22T13:19:32.624Z,3.07
2022-11-22T13:22:16.806Z,3.07
2022-11-22T13:25:02.134Z,3.06
2022-11-22T13:27:35.824Z,3.07
2022-11-22T13:30:20.894Z,3.08
2022-11-22T13:32:55.508Z,3.09
2022-11-22T13:35:35.442Z,3.08
2022-11-22T13:38:26.226Z,3.09
2022-11-22T13:41:23.920Z,3.04
2022-11-22T13:43:57.934Z,3.02
2022-11-22T13:46:56.363Z,3.00
2022-11-22T13:49:48.846Z,3.00
2022-11-22T13:52:47.721Z,2.98
2022-11-22T13:55:42.746Z,2.95
2022-11-22T13:58:54.688Z,2.94
2022-11-22T14:02:02.562Z,2.95
2022-11-22T14:04:41.311Z,2.95
2022-11-22T14:07:34.661Z,2.92
2022-11-22T14:10:31.573Z,2.90
2022-11-22T14:16:42.901Z,2.86
2022-11-22T14:19:42.677Z,2.82
2022-11-22T14:22:20.621Z,2.80
2022-11-22T14:25:24.035Z,2.81
2022-11-22T14:27:59.074Z,2.78
2022-11-22T14:30:40.363Z,2.79
2022-11-22T14:33:18.939Z,2.80
2022-11-22T14:36:17.025Z,2.79
2022-11-22T14:38:46.453Z,2.77
2022-11-22T14:41:54.403Z,2.76
2022-11-22T14:44:26.773Z,2.71
2022-11-22T14:47:00.437Z,2.70
2022-11-22T14:49:44.293Z,2.70
2022-11-22T14:52:22.392Z,2.65
2022-11-22T14:54:57.756Z,2.61
2022-11-22T14:57:28.421Z,2.62
2022-11-22T15:00:09.311Z,2.61
2022-11-22T15:03:11.625Z,2.65
2022-11-22T15:09:17.844Z,2.63
2022-11-22T15:09:22.562Z,2.65
2022-11-22T15:12:13.992Z,2.69
2022-11-22T15:59:12.957Z,2.73
2022-11-22T16:01:45.636Z,2.74
2022-11-22T16:04:23.705Z,2.69
2022-11-22T16:06:53.999Z,2.74
2022-11-22T16:09:29.803Z,2.76
2022-11-22T16:12:04.886Z,2.76
2022-11-22T16:14:48.855Z,2.71
2022-11-22T16:17:30.062Z,2.71
2022-11-22T16:20:34.128Z,2.68
2022-11-22T16:23:22.208Z,2.70
2022-11-22T16:25:54.692Z,2.72
2022-11-22T16:28:31.283Z,2.72
2022-11-22T16:31:02.886Z,2.71
2022-11-22T16:33:32.479Z,2.75
2022-11-22T16:36:03.913Z,2.76
2022-11-22T16:38:33.448Z,2.75
2022-11-22T16:41:05.113Z,2.75
2022-11-22T16:43:36.776Z,2.76
2022-11-22T16:46:05.979Z,2.72
2022-11-22T16:48:37.969Z,2.70
2022-11-22T16:51:08.396Z,2.72
2022-11-22T16:53:42.924Z,2.69
2022-11-22T16:56:19.741Z,2.67
2022-11-22T16:58:53.291Z,2.65
2022-11-22T17:01:26.843Z,2.67
2022-11-22T17:03:58.471Z,2.68
2022-11-22T17:06:28.318Z,2.71
2022-11-22T17:09:00.723Z,2.65
2022-11-22T17:11:32.618Z,2.64
2022-11-22T17:14:04.309Z,2.63
2022-11-22T17:16:34.539Z,2.62
2022-11-22T17:19:04.370Z,2.63
2022-11-22T17:21:38.252Z,2.64
2022-11-22T17:24:14.817Z,2.63
2022-11-22T17:26:44.143Z,2.64
2022-11-22T17:29:35.201Z,2.67
2022-11-22T17:32:06.173Z,2.66
2022-11-22T17:34:35.950Z,2.65
2022-11-22T17:37:07.816Z,2.67
2022-11-22T17:39:36.691Z,2.67
2022-11-22T17:42:06.380Z,2.66
2022-11-22T17:44:37.366Z,2.65
2022-11-22T17:47:06.671Z,2.64
2022-11-22T17:49:36.406Z,2.66
2022-11-22T17:52:05.845Z,2.68
2022-11-22T17:54:35.448Z,2.68
2022-11-22T17:57:06.055Z,2.68
2022-11-22T17:59:35.258Z,2.67
2022-11-22T18:02:05.909Z,2.66
2022-11-22T18:04:34.918Z,2.64
2022-11-22T18:07:03.868Z,2.64
2022-11-22T18:09:34.873Z,2.63
2022-11-22T18:12:05.063Z,2.64
2022-11-22T18:14:34.822Z,2.65
2022-11-22T18:17:05.922Z,2.65
2022-11-22T18:19:35.292Z,2.65
2022-11-22T18:22:04.174Z,2.64
2022-11-22T18:24:32.891Z,2.64
2022-11-22T18:27:01.312Z,2.61
2022-11-22T18:29:46.113Z,2.57
2022-11-22T18:32:16.324Z,2.56
2022-11-22T18:34:45.019Z,2.55
2022-11-22T18:37:13.918Z,2.54
2022-11-22T18:39:42.699Z,2.53
2022-11-22T18:42:15.098Z,2.46
2022-11-22T18:44:44.007Z,2.47
2022-11-22T18:47:12.888Z,2.43
2022-11-22T18:49:43.392Z,2.44
2022-11-22T18:52:15.030Z,2.46
2022-11-22T18:54:46.982Z,2.51
2022-11-22T18:57:17.139Z,2.55
2022-11-22T18:59:46.105Z,2.57
2022-11-22T19:02:14.875Z,2.56
2022-11-22T19:04:44.931Z,2.52
2022-11-22T19:07:14.886Z,2.48
2022-11-22T19:09:43.898Z,2.48
2022-11-22T19:12:12.687Z,2.51
2022-11-22T19:14:41.179Z,2.52
2022-11-22T19:17:10.735Z,2.50
2022-11-22T19:19:39.290Z,2.47
2022-11-22T19:22:09.455Z,2.47
2022-11-22T19:24:42.501Z,2.47
2022-11-22T19:27:13.649Z,2.46
2022-11-22T19:29:42.274Z,2.41
2022-11-22T19:32:12.156Z,2.47
2022-11-22T19:34:41.277Z,2.50
2022-11-22T19:37:11.924Z,2.49
2022-11-22T19:39:40.877Z,2.49
2022-11-22T19:42:09.579Z,2.49
2022-11-22T19:44:38.731Z,2.49
2022-11-22T19:47:07.581Z,2.46
2022-11-22T19:49:36.075Z,2.46
2022-11-22T19:52:05.372Z,2.49
2022-11-22T19:54:35.403Z,2.49
2022-11-22T19:57:03.961Z,2.49
2022-11-22T19:59:34.544Z,2.46
2022-11-22T20:02:04.018Z,2.47
2022-11-22T20:04:32.749Z,2.46
2022-11-22T20:07:01.350Z,2.45
2022-11-22T20:09:30.809Z,2.42
2022-11-22T20:12:01.010Z,2.40
2022-11-22T20:14:30.106Z,2.39
2022-11-22T20:16:58.967Z,2.40
2022-11-22T20:19:33.895Z,2.42
2022-11-22T20:22:03.056Z,2.39
2022-11-22T20:24:34.259Z,2.36
2022-11-22T20:27:04.312Z,2.38
2022-11-22T20:29:32.775Z,2.35
2022-11-22T20:32:01.793Z,2.37
2022-11-22T20:34:31.377Z,2.38
2022-11-22T20:37:02.288Z,2.33
2022-11-22T20:39:35.498Z,2.29
2022-11-22T20:42:33.017Z,2.33
2022-11-22T20:44:56.019Z,2.33
2022-11-22T20:47:25.685Z,2.32
2022-11-22T20:49:55.272Z,2.36
2022-11-22T20:52:24.361Z,2.37
2022-11-22T20:54:53.369Z,2.31
2022-11-22T20:57:25.160Z,2.35
2022-11-22T20:59:54.817Z,2.35
2022-11-22T21:02:23.372Z,2.36
2022-11-22T21:04:52.285Z,2.37
2022-11-22T21:07:22.370Z,2.38
2022-11-22T21:09:51.656Z,2.37
2022-11-22T21:12:20.273Z,2.36
2022-11-22T21:14:53.695Z,2.34
2022-11-22T21:17:55.594Z,2.27
2022-11-22T21:20:12.333Z,2.26
2022-11-22T21:22:41.251Z,2.27
2022-11-22T21:25:11.402Z,2.31
2022-11-22T21:27:42.422Z,2.31
2022-11-22T21:30:13.961Z,2.30
2022-11-22T21:32:43.111Z,2.29
2022-11-22T21:35:12.412Z,2.30
2022-11-22T21:37:42.168Z,2.31
2022-11-22T21:40:12.296Z,2.29
2022-11-22T21:42:40.894Z,2.31
2022-11-22T21:45:10.840Z,2.31
2022-11-22T21:47:41.023Z,2.30
2022-11-22T21:50:21.853Z,2.28
2022-11-22T21:52:50.511Z,2.30
2022-11-22T21:55:19.520Z,2.30
2022-11-22T21:57:47.990Z,2.30
2022-11-22T22:00:18.204Z,2.31
2022-11-22T22:02:48.200Z,2.31
2022-11-22T22:05:17.931Z,2.31
2022-11-22T22:07:54.401Z,2.28
2022-11-22T22:10:23.496Z,2.25
2022-11-22T22:12:53.306Z,2.25
2022-11-22T22:15:21.989Z,2.27
2022-11-22T22:17:55.047Z,2.28
2022-11-22T22:20:24.967Z,2.28
2022-11-22T22:22:53.987Z,2.28
2022-11-22T22:25:22.614Z,2.29
2022-11-22T22:27:51.318Z,2.30
2022-11-22T22:30:19.999Z,2.31
2022-11-22T22:32:49.002Z,2.32
2022-11-22T22:35:19.665Z,2.32
2022-11-22T22:37:48.345Z,2.33
2022-11-22T22:40:17.427Z,2.35
2022-11-22T22:42:45.998Z,2.33
2022-11-22T22:45:14.875Z,2.34
2022-11-22T22:47:43.355Z,2.38
2022-11-22T22:50:12.415Z,2.41
2022-11-22T22:52:42.203Z,2.42
2022-11-22T22:55:11.142Z,2.42
2022-11-22T22:57:39.792Z,2.40
2022-11-22T23:00:13.876Z,2.40
2022-11-22T23:02:43.016Z,2.38
2022-11-22T23:05:12.694Z,2.38
2022-11-22T23:07:44.003Z,2.39
2022-11-22T23:10:12.910Z,2.40
2022-11-22T23:12:41.836Z,2.41
2022-11-22T23:15:11.586Z,2.41
2022-11-22T23:17:41.367Z,2.41
2022-11-22T23:20:10.939Z,2.42
2022-11-22T23:22:39.732Z,2.39
2022-11-22T23:25:10.993Z,2.36
2022-11-22T23:27:39.791Z,2.37
2022-11-22T23:30:09.722Z,2.39
2022-11-22T23:32:39.485Z,2.40
2022-11-22T23:35:09.187Z,2.36
2022-11-22T23:37:40.343Z,2.35
2022-11-22T23:40:12.401Z,2.36
2022-11-22T23:42:40.857Z,2.33
2022-11-22T23:45:19.587Z,2.34
2022-11-22T23:47:52.010Z,2.34
2022-11-22T23:50:21.337Z,2.36
2022-11-22T23:52:55.344Z,2.39
2022-11-22T23:55:25.751Z,2.39
2022-11-22T23:57:54.522Z,2.40
